createdAt,value
2016-09-28T00:00:00.000Z,0
2016-09-28T00:01:00.696Z,0
2016-09-28T00:02:01.448Z,0
2016-09-28T00:03:02.134Z,0
2016-09-28T00:04:02.841Z,0
2016-09-28T00:05:03.545Z,0
2016-09-28T00:06:04.331Z,0
2016-09-28T00:07:05.109Z,0
2016-09-28T00:08:05.794Z,0
2016-09-28T00:09:06.509Z,0
2016-09-28T00:10:07.195Z,0
2016-09-28T00:11:07.881Z,0
2016-09-28T00:12:08.567Z,0
2016-09-28T00:13:09.266Z,0
2016-09-28T00:14:09.968Z,0
2016-09-28T00:15:10.657Z,0
2016-09-28T00:16:11.330Z,0
2016-09-28T00:17:12.026Z,0
2016-09-28T00:18:12.757Z,0
2016-09-28T00:19:13.464Z,0
2016-09-28T00:20:14.150Z,0
2016-09-28T00:21:14.861Z,0
2016-09-28T00:22:15.547Z,0
2016-09-28T00:23:16.232Z,0
2016-09-28T00:24:16.912Z,0
2016-09-28T00:25:17.584Z,0
2016-09-28T00:26:18.285Z,0
2016-09-28T00:27:18.973Z,0
2016-09-28T00:28:19.656Z,0
2016-09-28T00:29:20.348Z,0
2016-09-28T00:30:21.032Z,0
2016-09-28T00:31:21.716Z,0
2016-09-28T00:32:22.416Z,0
2016-09-28T00:33:23.108Z,0
2016-09-28T00:34:23.794Z,0
2016-09-28T00:35:24.482Z,0
2016-09-28T00:36:25.164Z,0
2016-09-28T00:37:25.848Z,0
2016-09-28T00:38:26.541Z,0
2016-09-28T00:39:27.205Z,0
2016-09-28T00:40:27.884Z,0
2016-09-28T00:41:28.568Z,0
2016-09-28T00:42:29.276Z,0
2016-09-28T00:43:29.943Z,0
2016-09-28T00:44:30.625Z,0
2016-09-28T00:45:31.322Z,0
2016-09-28T00:46:32.009Z,0
2016-09-28T00:47:32.701Z,0
2016-09-28T00:48:33.408Z,0
2016-09-28T00:49:34.106Z,0
2016-09-28T00:50:34.793Z,0
2016-09-28T00:51:35.509Z,0
2016-09-28T00:52:36.220Z,0
2016-09-28T00:53:36.933Z,0
2016-09-28T00:54:37.634Z,0
2016-09-28T00:55:38.354Z,0
2016-09-28T00:56:39.032Z,0
2016-09-28T00:57:39.708Z,0
2016-09-28T00:58:40.386Z,0
2016-09-28T00:59:41.087Z,0
2016-09-28T01:00:41.785Z,0
2016-09-28T01:01:42.476Z,0
2016-09-28T01:02:43.163Z,0
2016-09-28T01:03:43.844Z,0
2016-09-28T01:04:44.538Z,0
2016-09-28T01:05:45.234Z,0
2016-09-28T01:06:45.930Z,0
2016-09-28T01:07:46.623Z,0
2016-09-28T01:08:47.318Z,0
2016-09-28T01:09:48.013Z,0
2016-09-28T01:10:48.693Z,0
2016-09-28T01:11:50.254Z,0
2016-09-28T01:12:50.960Z,0
2016-09-28T01:13:51.634Z,0
2016-09-28T01:14:52.328Z,0
2016-09-28T01:15:53.020Z,0
2016-09-28T01:16:53.709Z,0
2016-09-28T01:17:54.393Z,0
2016-09-28T01:18:55.137Z,0
2016-09-28T01:19:55.823Z,0
2016-09-28T01:20:56.507Z,0
2016-09-28T01:21:57.204Z,0
2016-09-28T01:22:57.903Z,0
2016-09-28T01:23:58.585Z,0
2016-09-28T01:24:59.297Z,0
2016-09-28T01:25:59.967Z,0
2016-09-28T01:27:00.651Z,0
2016-09-28T01:28:01.345Z,0
2016-09-28T01:29:02.018Z,0
2016-09-28T01:30:02.707Z,0
2016-09-28T01:31:03.390Z,0
2016-09-28T01:32:04.088Z,0
2016-09-28T01:33:04.771Z,0
2016-09-28T01:34:05.467Z,0
2016-09-28T01:35:06.152Z,0
2016-09-28T01:36:06.836Z,0
2016-09-28T01:37:07.512Z,0
2016-09-28T01:38:08.188Z,0
2016-09-28T01:39:08.895Z,0
2016-09-28T01:40:09.586Z,0
2016-09-28T01:41:10.285Z,0
2016-09-28T01:42:10.967Z,0
2016-09-28T01:43:11.642Z,0
2016-09-28T01:44:12.323Z,0
2016-09-28T01:45:13.028Z,0
2016-09-28T01:46:13.713Z,0
2016-09-28T01:47:14.386Z,0
2016-09-28T01:48:15.080Z,0
2016-09-28T01:49:15.772Z,0
2016-09-28T01:50:16.454Z,0
2016-09-28T01:51:17.149Z,0
2016-09-28T01:52:17.847Z,0
2016-09-28T01:53:18.526Z,0
2016-09-28T01:54:19.216Z,0
2016-09-28T01:55:19.888Z,0
2016-09-28T01:56:20.594Z,0
2016-09-28T01:57:21.284Z,0
2016-09-28T01:58:21.975Z,0
2016-09-28T01:59:22.658Z,0
2016-09-28T02:00:23.383Z,0
2016-09-28T02:01:24.075Z,0
2016-09-28T02:02:24.758Z,0
2016-09-28T02:03:25.443Z,0
2016-09-28T02:04:26.137Z,0
2016-09-28T02:05:26.797Z,0
2016-09-28T02:06:27.467Z,0
2016-09-28T02:07:28.150Z,0
2016-09-28T02:08:28.834Z,0
2016-09-28T02:09:29.507Z,0
2016-09-28T02:10:30.198Z,0
2016-09-28T02:11:30.953Z,0
2016-09-28T02:12:31.623Z,0
2016-09-28T02:13:32.300Z,0
2016-09-28T02:14:32.994Z,0
2016-09-28T02:15:33.667Z,0
2016-09-28T02:16:34.382Z,0
2016-09-28T02:17:35.049Z,0
2016-09-28T02:18:35.735Z,0
2016-09-28T02:19:36.480Z,0
2016-09-28T02:20:37.175Z,0
2016-09-28T02:21:37.849Z,0
2016-09-28T02:22:38.540Z,0
2016-09-28T02:23:39.235Z,0
2016-09-28T02:24:39.973Z,0
2016-09-28T02:25:40.661Z,0
2016-09-28T02:26:41.363Z,0
2016-09-28T02:27:42.042Z,0
2016-09-28T02:28:42.737Z,0
2016-09-28T02:29:43.433Z,0
2016-09-28T02:30:44.110Z,0
2016-09-28T02:31:44.799Z,0
2016-09-28T02:32:45.477Z,0
2016-09-28T02:33:46.156Z,0
2016-09-28T02:34:46.845Z,0
2016-09-28T02:35:47.558Z,0
2016-09-28T02:36:48.258Z,0
2016-09-28T02:37:48.930Z,0
2016-09-28T02:38:49.605Z,0
2016-09-28T02:39:50.287Z,0
2016-09-28T02:40:50.983Z,0
2016-09-28T02:41:51.694Z,0
2016-09-28T02:42:52.386Z,0
2016-09-28T02:43:53.069Z,0
2016-09-28T02:44:53.751Z,0
2016-09-28T02:45:54.435Z,0
2016-09-28T02:46:55.135Z,0
2016-09-28T02:47:55.806Z,0
2016-09-28T02:48:56.493Z,0
2016-09-28T02:49:57.162Z,0
2016-09-28T02:50:57.843Z,0
2016-09-28T02:51:58.547Z,0
2016-09-28T02:52:59.225Z,0
2016-09-28T02:53:59.902Z,0
2016-09-28T02:55:00.588Z,0
2016-09-28T02:56:01.277Z,0
2016-09-28T02:57:01.950Z,0
2016-09-28T02:58:02.621Z,0
2016-09-28T02:59:03.319Z,0
2016-09-28T03:00:03.991Z,0
2016-09-28T03:01:04.685Z,0
2016-09-28T03:02:05.410Z,0
2016-09-28T03:03:06.103Z,0
2016-09-28T03:04:06.831Z,0
2016-09-28T03:05:07.505Z,0
2016-09-28T03:06:08.190Z,0
2016-09-28T03:07:08.881Z,0
2016-09-28T03:08:09.568Z,0
2016-09-28T03:09:10.271Z,0
2016-09-28T03:10:10.972Z,0
2016-09-28T03:11:11.649Z,0
2016-09-28T03:12:12.398Z,0
2016-09-28T03:13:13.081Z,0
2016-09-28T03:14:13.758Z,0
2016-09-28T03:15:14.434Z,0
2016-09-28T03:16:15.142Z,0
2016-09-28T03:17:15.817Z,0
2016-09-28T03:18:16.492Z,0
2016-09-28T03:19:17.171Z,0
2016-09-28T03:20:17.944Z,0
2016-09-28T03:21:18.628Z,0
2016-09-28T03:22:19.308Z,0
2016-09-28T03:23:20.003Z,0
2016-09-28T03:24:20.675Z,0
2016-09-28T03:25:21.359Z,0
2016-09-28T03:26:22.027Z,0
2016-09-28T03:27:22.745Z,0
2016-09-28T03:28:23.425Z,0
2016-09-28T03:29:24.142Z,0
2016-09-28T03:30:24.820Z,0
2016-09-28T03:31:25.531Z,0
2016-09-28T03:32:26.215Z,0
2016-09-28T03:33:26.893Z,0
2016-09-28T03:34:27.585Z,0
2016-09-28T03:35:28.272Z,0
2016-09-28T03:36:28.977Z,0
2016-09-28T03:37:29.669Z,0
2016-09-28T03:38:30.351Z,0
2016-09-28T03:39:31.044Z,0
2016-09-28T03:40:31.717Z,0
2016-09-28T03:41:32.408Z,0
2016-09-28T03:42:33.096Z,0
2016-09-28T03:43:33.785Z,0
2016-09-28T03:44:34.482Z,0
2016-09-28T03:45:35.160Z,0
2016-09-28T03:46:35.853Z,0
2016-09-28T03:47:36.540Z,0
2016-09-28T03:48:37.201Z,0
2016-09-28T03:49:37.889Z,0
2016-09-28T03:50:38.620Z,0
2016-09-28T03:51:39.323Z,0
2016-09-28T03:52:40.014Z,0
2016-09-28T03:53:40.693Z,0
2016-09-28T03:54:41.387Z,0
2016-09-28T03:55:42.067Z,0
2016-09-28T03:56:42.783Z,0
2016-09-28T03:57:43.480Z,0
2016-09-28T03:58:44.177Z,0
2016-09-28T03:59:44.929Z,0
2016-09-28T04:00:45.617Z,0
2016-09-28T04:01:46.320Z,0
2016-09-28T04:02:47.018Z,0
2016-09-28T04:03:47.696Z,0
2016-09-28T04:04:48.388Z,0
2016-09-28T04:05:49.077Z,0
2016-09-28T04:06:49.764Z,0
2016-09-28T04:07:50.446Z,0
2016-09-28T04:08:51.209Z,0
2016-09-28T04:09:51.919Z,0
2016-09-28T04:10:52.602Z,0
2016-09-28T04:11:53.307Z,0
2016-09-28T04:12:54.042Z,0
2016-09-28T04:13:54.745Z,0
2016-09-28T04:14:55.447Z,0
2016-09-28T04:15:56.124Z,0
2016-09-28T04:16:56.889Z,0
2016-09-28T04:17:57.566Z,0
2016-09-28T04:18:58.242Z,0
2016-09-28T04:19:58.916Z,0
2016-09-28T04:20:59.626Z,0
2016-09-28T04:22:00.312Z,0
2016-09-28T04:23:01.024Z,0
2016-09-28T04:24:01.694Z,0
2016-09-28T04:25:02.399Z,0
2016-09-28T04:26:03.083Z,0
2016-09-28T04:27:03.765Z,0
2016-09-28T04:28:04.482Z,0
2016-09-28T04:29:05.216Z,0
2016-09-28T04:30:05.890Z,0
2016-09-28T04:31:06.624Z,0
2016-09-28T04:32:07.316Z,0
2016-09-28T04:33:08.015Z,0
2016-09-28T04:34:08.710Z,0
2016-09-28T04:35:09.413Z,0
2016-09-28T04:36:10.120Z,0
2016-09-28T04:37:10.801Z,0
2016-09-28T04:38:11.472Z,0
2016-09-28T04:39:12.175Z,0
2016-09-28T04:40:12.871Z,0
2016-09-28T04:41:13.551Z,0
2016-09-28T04:42:14.243Z,0
2016-09-28T04:43:15.835Z,0
2016-09-28T04:44:16.535Z,0
2016-09-28T04:45:17.209Z,0
2016-09-28T04:46:17.922Z,0
2016-09-28T04:47:18.625Z,0
2016-09-28T04:48:19.318Z,0
2016-09-28T04:49:20.009Z,0
2016-09-28T04:50:20.731Z,0
2016-09-28T04:51:21.578Z,0
2016-09-28T04:52:22.323Z,4
2016-09-28T04:53:23.197Z,4
2016-09-28T04:54:23.878Z,4
2016-09-28T04:55:24.568Z,4
2016-09-28T04:56:25.265Z,4
2016-09-28T04:57:25.959Z,4
2016-09-28T04:58:26.639Z,4
2016-09-28T04:59:27.331Z,4
2016-09-28T05:00:28.055Z,8
2016-09-28T05:01:28.759Z,8
2016-09-28T05:02:29.689Z,12
2016-09-28T05:03:31.404Z,12
2016-09-28T05:04:32.078Z,16
2016-09-28T05:05:32.768Z,12
2016-09-28T05:06:33.451Z,12
2016-09-28T05:07:34.160Z,16
2016-09-28T05:08:34.870Z,20
2016-09-28T05:09:35.558Z,20
2016-09-28T05:10:36.274Z,20
2016-09-28T05:11:36.993Z,24
2016-09-28T05:12:37.666Z,24
2016-09-28T05:13:38.356Z,36
2016-09-28T05:14:39.048Z,40
2016-09-28T05:15:39.749Z,52
2016-09-28T05:16:40.443Z,64
2016-09-28T05:17:41.133Z,80
2016-09-28T05:18:41.825Z,96
2016-09-28T05:19:42.502Z,92
2016-09-28T05:20:43.191Z,92
2016-09-28T05:21:43.895Z,92
2016-09-28T05:22:44.587Z,100
2016-09-28T05:23:45.271Z,104
2016-09-28T05:24:45.963Z,100
2016-09-28T05:25:46.675Z,104
2016-09-28T05:26:47.372Z,132
2016-09-28T05:27:48.065Z,180
2016-09-28T05:28:48.772Z,220
2016-09-28T05:29:49.455Z,232
2016-09-28T05:30:50.138Z,236
2016-09-28T05:31:50.850Z,228
2016-09-28T05:32:51.533Z,292
2016-09-28T05:33:52.273Z,316
2016-09-28T05:34:52.980Z,400
2016-09-28T05:35:53.666Z,440
2016-09-28T05:36:54.361Z,428
2016-09-28T05:37:55.051Z,456
2016-09-28T05:38:55.748Z,452
2016-09-28T05:39:56.449Z,492
2016-09-28T05:40:57.162Z,484
2016-09-28T05:41:57.854Z,512
2016-09-28T05:42:58.536Z,552
2016-09-28T05:43:59.227Z,624
2016-09-28T05:44:59.940Z,736
2016-09-28T05:46:00.655Z,764
2016-09-28T05:47:01.355Z,708
2016-09-28T05:48:02.044Z,672
2016-09-28T05:49:02.739Z,628
2016-09-28T05:50:03.439Z,732
2016-09-28T05:51:04.150Z,716
2016-09-28T05:52:04.842Z,692
2016-09-28T05:53:05.523Z,652
2016-09-28T05:54:06.205Z,724
2016-09-28T05:55:06.910Z,920
2016-09-28T05:56:07.649Z,1112
2016-09-28T05:57:08.384Z,1248
2016-09-28T05:58:09.077Z,1056
2016-09-28T05:59:09.776Z,984
2016-09-28T06:00:10.519Z,1160
2016-09-28T06:01:11.268Z,1148
2016-09-28T06:02:11.948Z,908
2016-09-28T06:03:12.653Z,852
2016-09-28T06:04:13.343Z,860
2016-09-28T06:05:14.040Z,728
2016-09-28T06:06:14.723Z,592
2016-09-28T06:07:15.441Z,464
2016-09-28T06:08:16.128Z,476
2016-09-28T06:09:16.855Z,496
2016-09-28T06:10:17.627Z,556
2016-09-28T06:11:20.282Z,668
2016-09-28T06:12:22.455Z,684
2016-09-28T06:13:23.151Z,744
2016-09-28T06:14:23.850Z,632
2016-09-28T06:15:24.538Z,580
2016-09-28T06:16:25.231Z,620
2016-09-28T06:17:26.669Z,572
2016-09-28T06:18:27.368Z,608
2016-09-28T06:19:28.067Z,716
2016-09-28T06:20:28.770Z,708
2016-09-28T06:21:29.464Z,704
2016-09-28T06:22:30.149Z,676
2016-09-28T06:23:30.844Z,660
2016-09-28T06:24:31.535Z,680
2016-09-28T06:25:32.212Z,760
2016-09-28T06:26:32.889Z,856
2016-09-28T06:27:33.628Z,928
2016-09-28T06:28:34.324Z,1084
2016-09-28T06:29:35.008Z,1248
2016-09-28T06:30:35.688Z,1404
2016-09-28T06:31:36.409Z,1516
2016-09-28T06:32:37.090Z,1368
2016-09-28T06:33:37.772Z,1284
2016-09-28T06:34:38.503Z,1344
2016-09-28T06:35:39.194Z,1232
2016-09-28T06:36:39.919Z,1320
2016-09-28T06:37:40.631Z,1568
2016-09-28T06:38:41.322Z,1448
2016-09-28T06:39:42.033Z,1500
2016-09-28T06:40:42.755Z,1576
2016-09-28T06:41:43.428Z,1640
2016-09-28T06:42:44.123Z,1376
2016-09-28T06:43:44.817Z,1280
2016-09-28T06:44:45.512Z,2260
2016-09-28T06:45:46.209Z,1764
2016-09-28T06:46:46.893Z,2504
2016-09-28T06:47:47.602Z,3712
2016-09-28T06:48:48.319Z,3304
2016-09-28T06:49:49.023Z,3212
2016-09-28T06:50:49.765Z,2676
2016-09-28T06:51:50.480Z,2668
2016-09-28T06:52:51.176Z,3760
2016-09-28T06:53:51.895Z,4540
2016-09-28T06:54:52.582Z,4820
2016-09-28T06:55:53.302Z,4040
2016-09-28T06:56:53.982Z,3440
2016-09-28T06:57:54.676Z,3232
2016-09-28T06:58:55.399Z,3012
2016-09-28T06:59:56.126Z,2904
2016-09-28T07:00:56.811Z,3036
2016-09-28T07:01:57.496Z,3328
2016-09-28T07:02:58.188Z,3800
2016-09-28T07:03:58.880Z,4224
2016-09-28T07:04:59.557Z,5980
2016-09-28T07:06:00.261Z,3916
2016-09-28T07:07:00.968Z,3872
2016-09-28T07:08:01.681Z,4712
2016-09-28T07:09:02.379Z,4636
2016-09-28T07:10:03.080Z,5600
2016-09-28T07:11:03.792Z,4992
2016-09-28T07:12:04.503Z,4028
2016-09-28T07:13:05.193Z,2924
2016-09-28T07:14:05.892Z,3268
2016-09-28T07:15:06.593Z,3748
2016-09-28T07:16:07.291Z,4140
2016-09-28T07:17:07.988Z,4456
2016-09-28T07:18:08.679Z,5796
2016-09-28T07:19:09.375Z,5312
2016-09-28T07:20:10.104Z,5200
2016-09-28T07:21:10.796Z,3560
2016-09-28T07:22:11.477Z,3012
2016-09-28T07:23:12.192Z,3312
2016-09-28T07:24:12.891Z,4748
2016-09-28T07:25:13.596Z,6424
2016-09-28T07:26:14.297Z,13520
2016-09-28T07:27:14.992Z,4932
2016-09-28T07:28:15.689Z,5080
2016-09-28T07:29:16.382Z,5448
2016-09-28T07:30:17.063Z,4112
2016-09-28T07:31:17.755Z,5568
2016-09-28T07:32:18.442Z,7740
2016-09-28T07:33:19.129Z,8656
2016-09-28T07:34:19.825Z,8404
2016-09-28T07:35:20.515Z,7504
2016-09-28T07:36:21.196Z,6972
2016-09-28T07:37:21.895Z,4228
2016-09-28T07:38:22.585Z,3128
2016-09-28T07:39:23.271Z,3484
2016-09-28T07:40:23.954Z,3504
2016-09-28T07:41:24.658Z,5464
2016-09-28T07:42:25.348Z,5060
2016-09-28T07:43:26.038Z,4276
2016-09-28T07:44:26.851Z,4732
2016-09-28T07:45:27.575Z,4524
2016-09-28T07:46:28.271Z,4524
2016-09-28T07:47:28.981Z,4780
2016-09-28T07:48:29.706Z,6060
2016-09-28T07:49:30.429Z,5940
2016-09-28T07:50:31.114Z,6436
2016-09-28T07:51:31.792Z,9740
2016-09-28T07:52:32.484Z,6320
2016-09-28T07:53:33.175Z,7428
2016-09-28T07:54:33.900Z,7508
2016-09-28T07:55:34.580Z,10336
2016-09-28T07:56:35.287Z,14416
2016-09-28T07:57:35.967Z,8300
2016-09-28T07:58:36.646Z,5828
2016-09-28T07:59:37.334Z,6412
2016-09-28T08:00:38.038Z,6568
2016-09-28T08:01:38.801Z,6704
2016-09-28T08:02:39.485Z,9692
2016-09-28T08:03:40.202Z,13000
2016-09-28T08:04:40.888Z,10056
2016-09-28T08:05:41.579Z,9628
2016-09-28T08:06:42.317Z,10568
2016-09-28T08:07:43.038Z,9776
2016-09-28T08:08:43.744Z,11352
2016-09-28T08:09:44.439Z,11744
2016-09-28T08:10:45.122Z,21248
2016-09-28T08:11:45.814Z,10388
2016-09-28T08:12:46.516Z,17280
2016-09-28T08:13:47.218Z,15428
2016-09-28T08:14:47.912Z,11528
2016-09-28T08:15:48.604Z,18560
2016-09-28T08:16:49.328Z,8692
2016-09-28T08:17:50.036Z,18464
2016-09-28T08:18:50.719Z,18624
2016-09-28T08:19:51.425Z,8868
2016-09-28T08:20:52.139Z,9848
2016-09-28T08:21:52.853Z,18304
2016-09-28T08:22:53.546Z,13228
2016-09-28T08:23:54.255Z,7820
2016-09-28T08:24:54.942Z,14780
2016-09-28T08:25:55.648Z,12764
2016-09-28T08:26:56.383Z,12320
2016-09-28T08:27:57.094Z,11396
2016-09-28T08:28:57.847Z,7376
2016-09-28T08:29:58.548Z,8444
2016-09-28T08:30:59.230Z,8380
2016-09-28T08:31:59.915Z,6712
2016-09-28T08:33:00.603Z,8760
2016-09-28T08:34:01.339Z,15196
2016-09-28T08:35:02.078Z,9464
2016-09-28T08:36:02.787Z,13952
2016-09-28T08:37:03.571Z,12584
2016-09-28T08:38:04.474Z,11988
2016-09-28T08:39:05.384Z,20640
2016-09-28T08:40:06.093Z,14372
2016-09-28T08:41:06.781Z,29120
2016-09-28T08:42:07.479Z,10008
2016-09-28T08:43:08.206Z,22528
2016-09-28T08:44:08.886Z,27296
2016-09-28T08:45:09.592Z,28704
2016-09-28T08:46:10.315Z,11276
2016-09-28T08:47:11.018Z,11584
2016-09-28T08:48:11.710Z,29536
2016-09-28T08:49:12.401Z,12432
2016-09-28T08:50:13.101Z,14836
2016-09-28T08:51:13.792Z,21376
2016-09-28T08:52:14.475Z,9428
2016-09-28T08:53:15.168Z,25792
2016-09-28T08:54:15.875Z,9268
2016-09-28T08:55:16.573Z,11856
2016-09-28T08:56:17.313Z,15216
2016-09-28T08:57:18.010Z,11924
2016-09-28T08:58:18.745Z,11512
2016-09-28T08:59:19.461Z,11644
2016-09-28T09:00:20.159Z,11612
2016-09-28T09:01:20.855Z,12620
2016-09-28T09:02:21.547Z,10740
2016-09-28T09:03:22.253Z,10592
2016-09-28T09:04:22.956Z,10628
2016-09-28T09:05:23.654Z,13372
2016-09-28T09:06:24.346Z,14572
2016-09-28T09:07:25.039Z,12660
2016-09-28T09:08:25.727Z,13468
2016-09-28T09:09:26.444Z,13244
2016-09-28T09:10:27.138Z,12232
2016-09-28T09:11:27.833Z,10964
2016-09-28T09:12:28.529Z,10516
2016-09-28T09:13:29.242Z,11340
2016-09-28T09:14:29.928Z,11856
2016-09-28T09:15:30.622Z,11232
2016-09-28T09:16:31.334Z,12180
2016-09-28T09:17:32.032Z,12940
2016-09-28T09:18:32.757Z,11336
2016-09-28T09:19:33.471Z,11980
2016-09-28T09:20:34.154Z,13688
2016-09-28T09:21:34.871Z,13044
2016-09-28T09:22:35.572Z,11576
2016-09-28T09:23:36.303Z,10080
2016-09-28T09:24:37.046Z,8784
2016-09-28T09:25:37.804Z,8484
2016-09-28T09:26:38.517Z,7908
2016-09-28T09:27:39.233Z,7768
2016-09-28T09:28:39.968Z,7328
2016-09-28T09:29:40.731Z,7200
2016-09-28T09:30:41.565Z,6148
2016-09-28T09:31:42.343Z,7300
2016-09-28T09:32:43.059Z,6796
2016-09-28T09:33:43.793Z,6816
2016-09-28T09:34:44.514Z,7480
2016-09-28T09:35:45.262Z,5728
2016-09-28T09:36:46.006Z,6704
2016-09-28T09:37:46.744Z,6732
2016-09-28T09:38:47.546Z,6408
2016-09-28T09:39:48.327Z,5676
2016-09-28T09:40:49.082Z,6160
2016-09-28T09:41:49.800Z,5872
2016-09-28T09:42:50.547Z,6324
2016-09-28T09:43:51.301Z,5968
2016-09-28T09:44:52.036Z,6656
2016-09-28T09:45:52.852Z,6952
2016-09-28T09:46:53.706Z,7400
2016-09-28T09:47:54.503Z,7424
2016-09-28T09:48:55.410Z,7464
2016-09-28T09:49:56.211Z,7280
2016-09-28T09:50:56.996Z,7444
2016-09-28T09:51:57.866Z,8272
2016-09-28T09:52:58.637Z,7552
2016-09-28T09:53:59.413Z,7568
2016-09-28T09:55:00.187Z,6880
2016-09-28T09:56:01.015Z,6760
2016-09-28T09:57:01.845Z,6488
2016-09-28T09:58:02.620Z,6804
2016-09-28T09:59:03.403Z,6552
2016-09-28T10:00:04.159Z,6272
2016-09-28T10:01:04.934Z,5980
2016-09-28T10:02:05.662Z,6336
2016-09-28T10:03:06.365Z,6620
2016-09-28T10:04:07.107Z,6660
2016-09-28T10:05:07.840Z,7500
2016-09-28T10:06:08.583Z,7904
2016-09-28T10:07:09.304Z,7688
2016-09-28T10:08:10.027Z,7916
2016-09-28T10:09:10.772Z,8852
2016-09-28T10:10:11.523Z,8960
2016-09-28T10:11:12.272Z,8376
2016-09-28T10:12:13.037Z,8000
2016-09-28T10:13:13.770Z,8120
2016-09-28T10:14:14.506Z,8244
2016-09-28T10:15:15.257Z,8368
2016-09-28T10:16:15.989Z,8892
2016-09-28T10:17:16.736Z,9848
2016-09-28T10:18:17.479Z,8952
2016-09-28T10:19:18.236Z,9404
2016-09-28T10:20:18.985Z,9928
2016-09-28T10:21:19.753Z,9568
2016-09-28T10:22:20.519Z,8216
2016-09-28T10:23:21.264Z,9760
2016-09-28T10:24:22.000Z,10100
2016-09-28T10:25:22.864Z,8904
2016-09-28T10:26:23.585Z,8188
2016-09-28T10:27:24.302Z,8044
2016-09-28T10:28:25.026Z,8168
2016-09-28T10:29:25.768Z,8092
2016-09-28T10:30:26.502Z,7640
2016-09-28T10:31:27.217Z,7100
2016-09-28T10:32:27.983Z,7340
2016-09-28T10:33:28.702Z,7536
2016-09-28T10:34:29.408Z,7776
2016-09-28T10:35:30.116Z,8028
2016-09-28T10:36:30.848Z,7860
2016-09-28T10:37:31.565Z,7760
2016-09-28T10:38:32.287Z,7648
2016-09-28T10:39:33.048Z,7612
2016-09-28T10:40:33.780Z,7428
2016-09-28T10:41:34.506Z,7324
2016-09-28T10:42:35.234Z,7276
2016-09-28T10:43:35.968Z,7224
2016-09-28T10:44:36.731Z,7208
2016-09-28T10:45:37.495Z,7272
2016-09-28T10:46:38.272Z,7384
2016-09-28T10:47:38.995Z,7540
2016-09-28T10:48:39.730Z,7728
2016-09-28T10:49:40.478Z,7776
2016-09-28T10:50:41.234Z,7888
2016-09-28T10:51:41.982Z,8052
2016-09-28T10:52:42.739Z,7984
2016-09-28T10:53:43.448Z,7980
2016-09-28T10:54:44.191Z,7712
2016-09-28T10:55:44.914Z,7872
2016-09-28T10:56:45.643Z,8220
2016-09-28T10:57:46.347Z,7696
2016-09-28T10:58:47.037Z,7340
2016-09-28T10:59:47.734Z,8184
2016-09-28T11:00:48.433Z,8924
2016-09-28T11:01:49.117Z,8548
2016-09-28T11:02:49.848Z,8520
2016-09-28T11:03:50.553Z,8692
2016-09-28T11:04:51.259Z,8344
2016-09-28T11:05:51.962Z,7924
2016-09-28T11:06:52.656Z,7776
2016-09-28T11:07:53.394Z,7460
2016-09-28T11:08:54.074Z,7132
2016-09-28T11:09:54.777Z,7664
2016-09-28T11:10:55.481Z,7804
2016-09-28T11:11:56.192Z,8084
2016-09-28T11:12:56.905Z,7900
2016-09-28T11:13:57.591Z,7556
2016-09-28T11:14:58.283Z,6348
2016-09-28T11:15:58.982Z,5592
2016-09-28T11:16:59.667Z,5552
2016-09-28T11:18:00.382Z,5712
2016-09-28T11:19:01.098Z,6208
2016-09-28T11:20:01.782Z,5964
2016-09-28T11:21:02.497Z,5820
2016-09-28T11:22:03.171Z,6184
2016-09-28T11:23:03.857Z,6764
2016-09-28T11:24:04.559Z,6156
2016-09-28T11:25:05.293Z,6036
2016-09-28T11:26:05.986Z,5824
2016-09-28T11:27:06.732Z,5844
2016-09-28T11:28:07.418Z,5820
2016-09-28T11:29:08.159Z,5924
2016-09-28T11:30:08.858Z,6000
2016-09-28T11:31:09.571Z,6136
2016-09-28T11:32:10.262Z,6284
2016-09-28T11:33:10.992Z,6308
2016-09-28T11:34:11.691Z,6284
2016-09-28T11:35:12.381Z,6288
2016-09-28T11:36:13.069Z,6252
2016-09-28T11:37:13.759Z,6260
2016-09-28T11:38:14.438Z,6224
2016-09-28T11:39:15.153Z,6204
2016-09-28T11:40:15.878Z,6216
2016-09-28T11:41:16.560Z,6192
2016-09-28T11:42:17.247Z,6208
2016-09-28T11:43:18.012Z,6280
2016-09-28T11:44:18.724Z,6240
2016-09-28T11:45:19.472Z,6148
2016-09-28T11:46:20.186Z,6112
2016-09-28T11:47:20.926Z,6228
2016-09-28T11:48:21.617Z,6392
2016-09-28T11:49:22.317Z,6488
2016-09-28T11:50:23.066Z,6512
2016-09-28T11:51:23.794Z,6428
2016-09-28T11:52:24.484Z,6396
2016-09-28T11:53:25.193Z,6300
2016-09-28T11:54:25.894Z,6308
2016-09-28T11:55:26.579Z,6324
2016-09-28T11:56:27.266Z,6368
2016-09-28T11:57:28.079Z,6472
2016-09-28T11:58:28.725Z,6388
2016-09-28T11:59:29.480Z,6384
2016-09-28T12:00:30.230Z,6416
2016-09-28T12:01:30.921Z,6660
2016-09-28T12:02:31.647Z,6428
2016-09-28T12:03:32.371Z,6444
2016-09-28T12:04:33.060Z,6248
2016-09-28T12:05:33.767Z,6244
2016-09-28T12:06:34.454Z,6364
2016-09-28T12:07:35.188Z,6560
2016-09-28T12:08:35.904Z,6696
2016-09-28T12:09:36.628Z,6684
2016-09-28T12:10:37.347Z,6800
2016-09-28T12:11:38.034Z,6844
2016-09-28T12:12:38.754Z,6784
2016-09-28T12:13:39.478Z,6768
2016-09-28T12:14:40.167Z,6788
2016-09-28T12:15:40.857Z,6884
2016-09-28T12:16:41.573Z,6864
2016-09-28T12:17:42.273Z,6748
2016-09-28T12:18:43.001Z,6520
2016-09-28T12:19:43.699Z,6260
2016-09-28T12:20:44.396Z,6096
2016-09-28T12:21:45.081Z,6136
2016-09-28T12:22:45.767Z,6272
2016-09-28T12:23:46.491Z,5920
2016-09-28T12:24:47.189Z,5888
2016-09-28T12:25:47.884Z,5788
2016-09-28T12:26:48.577Z,5684
2016-09-28T12:27:49.262Z,5704
2016-09-28T12:28:49.954Z,5564
2016-09-28T12:29:50.655Z,5464
2016-09-28T12:30:51.364Z,5400
2016-09-28T12:31:52.047Z,5820
2016-09-28T12:32:52.761Z,5548
2016-09-28T12:33:53.463Z,4972
2016-09-28T12:34:54.161Z,4700
2016-09-28T12:35:54.882Z,4612
2016-09-28T12:36:55.587Z,4512
2016-09-28T12:37:56.274Z,4704
2016-09-28T12:38:56.963Z,4812
2016-09-28T12:39:57.716Z,4868
2016-09-28T12:40:58.409Z,5304
2016-09-28T12:41:59.145Z,5076
2016-09-28T12:42:59.833Z,4788
2016-09-28T12:44:00.511Z,4520
2016-09-28T12:45:01.199Z,4332
2016-09-28T12:46:01.905Z,4064
2016-09-28T12:47:02.613Z,4344
2016-09-28T12:48:03.312Z,4076
2016-09-28T12:49:04.033Z,4068
2016-09-28T12:50:04.752Z,3920
2016-09-28T12:51:05.485Z,4108
2016-09-28T12:52:06.198Z,4172
2016-09-28T12:53:07.190Z,4244
2016-09-28T12:54:07.899Z,5112
2016-09-28T12:55:08.619Z,4848
2016-09-28T12:56:09.303Z,4808
2016-09-28T12:57:10.001Z,4288
2016-09-28T12:58:10.711Z,4428
2016-09-28T12:59:11.455Z,3912
2016-09-28T13:00:12.163Z,3284
2016-09-28T13:01:12.870Z,2888
2016-09-28T13:02:13.586Z,2800
2016-09-28T13:03:14.313Z,2812
2016-09-28T13:04:15.002Z,2928
2016-09-28T13:05:15.697Z,2920
2016-09-28T13:06:16.386Z,2892
2016-09-28T13:07:17.110Z,2876
2016-09-28T13:08:17.840Z,3196
2016-09-28T13:09:18.537Z,4052
2016-09-28T13:10:19.223Z,4552
2016-09-28T13:11:19.913Z,4292
2016-09-28T13:12:20.615Z,4184
2016-09-28T13:13:21.315Z,3672
2016-09-28T13:14:22.001Z,3540
2016-09-28T13:15:22.694Z,3200
2016-09-28T13:16:23.383Z,3124
2016-09-28T13:17:24.074Z,3308
2016-09-28T13:18:24.822Z,3700
2016-09-28T13:19:25.544Z,4276
2016-09-28T13:20:26.239Z,4900
2016-09-28T13:21:26.945Z,4556
2016-09-28T13:22:27.638Z,5472
2016-09-28T13:23:28.317Z,5760
2016-09-28T13:24:29.015Z,4244
2016-09-28T13:25:29.725Z,3440
2016-09-28T13:26:30.435Z,3388
2016-09-28T13:27:31.109Z,2752
2016-09-28T13:28:31.834Z,2612
2016-09-28T13:29:32.586Z,2524
2016-09-28T13:30:33.289Z,2548
2016-09-28T13:31:34.007Z,2564
2016-09-28T13:32:35.260Z,3168
2016-09-28T13:33:35.957Z,3316
2016-09-28T13:34:36.647Z,3516
2016-09-28T13:35:37.353Z,3684
2016-09-28T13:36:38.041Z,3728
2016-09-28T13:37:38.744Z,3476
2016-09-28T13:38:39.554Z,3488
2016-09-28T13:39:40.257Z,3420
2016-09-28T13:40:40.964Z,3296
2016-09-28T13:41:41.648Z,3808
2016-09-28T13:42:42.369Z,3704
2016-09-28T13:43:43.052Z,3840
2016-09-28T13:44:43.741Z,4172
2016-09-28T13:45:44.437Z,4408
2016-09-28T13:46:45.136Z,4608
2016-09-28T13:47:45.836Z,4872
2016-09-28T13:48:46.532Z,5276
2016-09-28T13:49:47.241Z,5696
2016-09-28T13:50:47.931Z,5928
2016-09-28T13:51:48.620Z,6548
2016-09-28T13:52:49.346Z,6980
2016-09-28T13:53:50.050Z,7768
2016-09-28T13:54:50.742Z,7832
2016-09-28T13:55:51.441Z,7748
2016-09-28T13:56:52.149Z,7632
2016-09-28T13:57:52.861Z,7636
2016-09-28T13:58:53.538Z,7636